createdAt,value
2022-12-09T00:02:13.098Z,4.17
2022-12-09T00:04:41.694Z,5.50
2022-12-09T00:07:10.326Z,4.33
2022-12-09T00:09:40.312Z,4.87
2022-12-09T00:12:08.819Z,3.30
2022-12-09T00:14:37.139Z,3.93
2022-12-09T00:17:05.663Z,2.80
2022-12-09T00:19:34.481Z,3.50
2022-12-09T00:22:03.119Z,3.63
2022-12-09T00:24:31.455Z,3.83
2022-12-09T00:27:01.349Z,3.63
2022-12-09T00:29:29.687Z,2.90
2022-12-09T00:31:58.110Z,3.73
2022-12-09T00:34:26.721Z,4.30
2022-12-09T00:36:58.311Z,3.50
2022-12-09T00:39:26.654Z,3.20
2022-12-09T00:41:55.100Z,3.97
2022-12-09T00:44:25.108Z,2.47
2022-12-09T00:46:53.529Z,3.67
2022-12-09T00:49:21.906Z,3.37
2022-12-09T00:51:50.481Z,3.10
2022-12-09T00:54:18.781Z,4.43
2022-12-09T00:56:47.103Z,3.50
2022-12-09T00:59:15.392Z,5.53
2022-12-09T01:01:45.265Z,3.67
2022-12-09T01:04:14.026Z,3.73
2022-12-09T01:06:42.760Z,2.37
2022-12-09T01:09:11.187Z,5.93
2022-12-09T01:11:40.087Z,3.20
2022-12-09T01:14:08.477Z,3.23
2022-12-09T01:16:37.269Z,3.80
2022-12-09T01:19:08.439Z,3.77
2022-12-09T01:21:37.170Z,4.30
2022-12-09T01:24:08.097Z,5.20
2022-12-09T01:26:36.941Z,3.20
2022-12-09T01:29:05.819Z,2.97
2022-12-09T01:31:35.178Z,7.50
2022-12-09T01:34:03.906Z,3.50
2022-12-09T01:36:33.770Z,3.70
2022-12-09T01:39:02.328Z,3.67
2022-12-09T01:41:30.791Z,5.57
2022-12-09T01:44:13.183Z,3.50
2022-12-09T01:46:41.967Z,4.80
2022-12-09T01:49:11.436Z,4.90
2022-12-09T01:51:48.167Z,3.10
2022-12-09T01:54:16.895Z,3.20
2022-12-09T01:56:45.628Z,2.60
2022-12-09T01:59:16.510Z,3.83
2022-12-09T02:01:47.153Z,2.80
2022-12-09T02:04:15.653Z,3.80
2022-12-09T02:06:45.379Z,3.90
2022-12-09T02:09:13.850Z,3.30
2022-12-09T02:11:50.386Z,10.70
2022-12-09T02:14:21.288Z,9.20
2022-12-09T02:16:53.357Z,5.13
2022-12-09T02:19:28.217Z,3.57
2022-12-09T02:22:00.122Z,4.47
2022-12-09T02:24:32.750Z,2.40
2022-12-09T02:27:02.785Z,4.57
2022-12-09T02:29:42.330Z,3.30
2022-12-09T02:32:25.141Z,2.67
2022-12-09T02:34:56.596Z,4.13
2022-12-09T02:37:27.292Z,2.83
2022-12-09T02:39:58.515Z,4.90
2022-12-09T02:42:28.664Z,4.50
2022-12-09T02:44:58.926Z,3.73
2022-12-09T02:47:29.085Z,5.63
2022-12-09T02:50:02.111Z,4.50
2022-12-09T02:52:31.488Z,4.07
2022-12-09T02:55:00.465Z,4.83
2022-12-09T02:57:30.206Z,4.70
2022-12-09T02:59:58.904Z,3.70
2022-12-09T03:02:30.095Z,2.23
2022-12-09T03:05:08.727Z,4.20
2022-12-09T03:07:42.404Z,3.20
2022-12-09T03:10:14.048Z,6.83
2022-12-09T03:12:43.328Z,3.67
2022-12-09T03:15:13.732Z,7.37
2022-12-09T03:17:43.298Z,4.33
2022-12-09T03:20:14.837Z,2.77
2022-12-09T03:22:44.983Z,3.60
2022-12-09T03:25:16.449Z,3.50
2022-12-09T03:27:48.678Z,5.37
2022-12-09T03:30:18.029Z,2.37
2022-12-09T03:32:47.461Z,4.17
2022-12-09T03:35:19.443Z,2.90
2022-12-09T03:37:48.411Z,4.70
2022-12-09T03:40:20.114Z,3.50
2022-12-09T03:42:50.825Z,5.93
2022-12-09T03:45:20.177Z,4.03
2022-12-09T03:47:49.416Z,2.77
2022-12-09T03:50:19.897Z,5.80
2022-12-09T03:52:51.864Z,4.83
2022-12-09T03:55:22.444Z,8.30
2022-12-09T03:57:52.765Z,3.27
2022-12-09T04:00:21.598Z,2.30
2022-12-09T04:02:52.509Z,3.43
2022-12-09T04:05:22.621Z,3.00
2022-12-09T04:07:51.099Z,6.47
2022-12-09T04:10:20.165Z,3.23
2022-12-09T04:12:48.794Z,5.80
2022-12-09T04:15:17.552Z,3.80
2022-12-09T04:17:46.052Z,3.80
2022-12-09T04:20:15.149Z,3.47
2022-12-09T04:22:45.221Z,4.60
2022-12-09T04:25:13.787Z,3.53
2022-12-09T04:27:42.237Z,4.23
2022-12-09T04:30:11.307Z,3.40
2022-12-09T04:32:40.254Z,2.60
2022-12-09T04:35:09.007Z,4.40
2022-12-09T04:37:37.556Z,3.73
2022-12-09T04:40:08.555Z,4.53
2022-12-09T04:42:37.709Z,3.20
2022-12-09T04:45:06.426Z,13.03
2022-12-09T04:47:35.142Z,3.33
2022-12-09T04:50:03.770Z,4.07
2022-12-09T04:52:32.537Z,4.03
2022-12-09T04:55:01.099Z,5.20
2022-12-09T04:57:30.904Z,5.00
2022-12-09T04:59:59.285Z,5.43
2022-12-09T05:02:27.676Z,4.60
2022-12-09T05:04:56.830Z,8.80
2022-12-09T05:07:26.774Z,3.67
2022-12-09T05:09:55.353Z,2.53
2022-12-09T05:12:23.780Z,3.50
2022-12-09T05:14:53.586Z,4.60
2022-12-09T05:17:22.050Z,4.17
2022-12-09T05:19:50.803Z,3.10
2022-12-09T05:22:19.514Z,4.73
2022-12-09T05:24:48.194Z,23.60
2022-12-09T05:27:17.375Z,3.93
2022-12-09T05:29:45.833Z,4.47
2022-12-09T05:32:15.896Z,3.90
2022-12-09T05:34:44.447Z,3.97
2022-12-09T05:37:15.404Z,7.17
2022-12-09T05:39:44.233Z,5.40
2022-12-09T05:42:12.736Z,7.80
2022-12-09T05:44:41.153Z,4.60
2022-12-09T05:47:09.941Z,9.43
2022-12-09T05:49:40.127Z,4.17
2022-12-09T05:52:10.398Z,7.07
2022-12-09T05:54:38.945Z,5.20
2022-12-09T05:57:08.050Z,5.27
2022-12-09T05:59:36.624Z,7.20
2022-12-09T06:02:09.807Z,6.30
2022-12-09T06:04:40.482Z,19.20
2022-12-09T06:07:09.613Z,3.50
2022-12-09T06:09:38.183Z,9.00
2022-12-09T06:12:07.231Z,9.70
2022-12-09T06:14:35.963Z,7.80
2022-12-09T06:17:04.689Z,5.60
2022-12-09T06:19:33.436Z,5.23
2022-12-09T06:22:03.465Z,6.13
2022-12-09T06:24:31.968Z,5.10
2022-12-09T06:27:00.339Z,4.07
2022-12-09T06:29:28.869Z,5.23
2022-12-09T06:31:57.591Z,5.67
2022-12-09T06:34:26.257Z,5.30
2022-12-09T06:36:54.860Z,4.90
2022-12-09T06:39:24.729Z,5.97
2022-12-09T06:41:53.842Z,3.30
2022-12-09T06:44:24.269Z,6.30
2022-12-09T06:46:53.140Z,7.47
2022-12-09T06:49:21.649Z,5.43
2022-12-09T06:51:50.638Z,13.07
2022-12-09T06:54:19.373Z,9.17
2022-12-09T06:56:49.320Z,4.50
2022-12-09T06:59:18.295Z,6.20
2022-12-09T07:01:47.736Z,5.80
2022-12-09T07:04:16.916Z,3.77
2022-12-09T07:06:46.524Z,12.83
2022-12-09T07:09:16.628Z,6.07
2022-12-09T07:11:47.165Z,9.83
2022-12-09T07:14:18.354Z,3.77
2022-12-09T07:16:47.106Z,7.77
2022-12-09T07:19:19.006Z,5.93
2022-12-09T07:21:47.890Z,5.50
2022-12-09T07:24:16.689Z,3.70
2022-12-09T07:26:45.255Z,6.50
2022-12-09T07:29:13.570Z,8.37
2022-12-09T07:31:43.748Z,17.03
2022-12-09T07:34:12.705Z,6.57
2022-12-09T07:36:41.399Z,6.33
2022-12-09T07:39:12.098Z,7.40
2022-12-09T07:41:40.682Z,103.00
2022-12-09T07:44:09.365Z,5.57
2022-12-09T07:46:37.994Z,15.23
2022-12-09T07:49:08.344Z,11.97
2022-12-09T07:51:37.033Z,8.07
2022-12-09T07:54:06.097Z,25.23
2022-12-09T07:56:35.054Z,14.67
2022-12-09T07:59:03.464Z,21.97
2022-12-09T08:01:32.317Z,26.43
2022-12-09T08:04:01.635Z,7.97
2022-12-09T08:06:32.215Z,6.87
2022-12-09T08:09:01.859Z,15.57
2022-12-09T08:11:31.923Z,5.33
2022-12-09T08:14:07.257Z,10.87
2022-12-09T08:16:39.292Z,6.67
2022-12-09T08:19:08.144Z,12.93
2022-12-09T08:21:38.350Z,9.50
2022-12-09T08:24:07.792Z,14.03
2022-12-09T08:26:37.600Z,20.03
2022-12-09T08:29:09.154Z,20.17
2022-12-09T08:31:41.760Z,14.93
2022-12-09T08:34:11.098Z,11.23
2022-12-09T08:36:41.600Z,20.07
2022-12-09T08:39:10.297Z,22.67
2022-12-09T08:41:40.261Z,19.73
2022-12-09T08:44:11.093Z,28.33
2022-12-09T08:46:40.953Z,19.13
2022-12-09T08:49:10.098Z,32.83
2022-12-09T08:51:38.962Z,28.53
2022-12-09T08:54:09.189Z,20.47
2022-12-09T08:56:37.990Z,41.33
2022-12-09T08:59:06.771Z,20.60
2022-12-09T09:01:36.359Z,26.10
2022-12-09T09:04:06.911Z,25.67
2022-12-09T09:06:36.301Z,14.23
2022-12-09T09:09:05.242Z,22.53
2022-12-09T09:11:36.341Z,16.80
2022-12-09T09:14:05.844Z,9.83
2022-12-09T09:16:34.638Z,22.93
2022-12-09T09:19:06.176Z,20.10
2022-12-09T09:21:35.890Z,27.23
2022-12-09T09:24:04.708Z,12.03
2022-12-09T09:26:33.177Z,29.40
2022-12-09T09:29:02.908Z,16.60
2022-12-09T09:31:31.269Z,9.90
2022-12-09T09:33:59.969Z,14.07
2022-12-09T09:36:28.471Z,13.73
2022-12-09T09:38:58.206Z,5.70
2022-12-09T09:41:30.061Z,17.63
2022-12-09T09:43:59.066Z,15.77
2022-12-09T09:46:35.082Z,12.23
2022-12-09T09:49:04.763Z,13.67
2022-12-09T09:51:35.843Z,10.73
2022-12-09T09:54:08.741Z,9.40
2022-12-09T09:56:41.175Z,11.70
2022-12-09T09:59:16.850Z,8.87
2022-12-09T10:01:48.638Z,18.80
2022-12-09T10:04:20.811Z,14.10
2022-12-09T10:06:52.396Z,10.63
2022-12-09T10:09:23.862Z,14.23
2022-12-09T10:11:57.218Z,8.77
2022-12-09T10:14:30.568Z,22.40
2022-12-09T10:17:05.569Z,26.17
2022-12-09T10:19:37.134Z,17.07
2022-12-09T10:22:13.668Z,16.53
2022-12-09T10:24:48.073Z,13.97
2022-12-09T10:27:20.508Z,11.50
2022-12-09T10:29:53.552Z,7.47
2022-12-09T10:32:24.684Z,12.70
2022-12-09T10:34:53.423Z,13.90
2022-12-09T10:37:30.065Z,15.73
2022-12-09T10:40:16.514Z,8.30
2022-12-09T10:43:05.689Z,13.47
2022-12-09T10:46:00.104Z,21.90
2022-12-09T10:48:33.079Z,25.93
2022-12-09T10:51:03.965Z,16.60
2022-12-09T10:53:33.843Z,27.70
2022-12-09T10:56:03.354Z,23.07
2022-12-09T10:58:32.590Z,12.80
2022-12-09T11:01:07.271Z,10.67
2022-12-09T11:03:39.848Z,14.53
2022-12-09T11:06:19.594Z,20.27
2022-12-09T11:08:51.746Z,21.40
2022-12-09T11:11:21.491Z,9.43
2022-12-09T11:13:50.076Z,19.00
2022-12-09T11:16:18.874Z,16.37
2022-12-09T11:18:49.881Z,14.70
2022-12-09T11:21:32.570Z,15.83
2022-12-09T11:24:03.494Z,15.77
2022-12-09T11:26:39.355Z,14.57
2022-12-09T11:29:14.907Z,13.30
2022-12-09T11:31:45.482Z,14.27
2022-12-09T11:34:19.875Z,13.67
2022-12-09T11:36:49.910Z,15.97
2022-12-09T11:39:21.049Z,7.00
2022-12-09T11:42:12.987Z,11.20
2022-12-09T11:44:44.731Z,9.63
2022-12-09T11:47:14.370Z,14.97
2022-12-09T11:49:50.188Z,17.73
2022-12-09T11:52:27.010Z,13.83
2022-12-09T11:54:59.591Z,17.00
2022-12-09T11:57:30.044Z,19.40
2022-12-09T12:00:00.778Z,16.00
2022-12-09T12:02:32.086Z,16.97
2022-12-09T12:05:04.697Z,23.17
2022-12-09T12:07:37.860Z,15.67
2022-12-09T12:10:07.564Z,12.33
2022-12-09T12:12:38.423Z,18.37
2022-12-09T12:15:12.422Z,15.30
2022-12-09T12:17:44.156Z,19.30
2022-12-09T12:20:15.035Z,14.20
2022-12-09T12:22:59.008Z,18.70
2022-12-09T12:25:38.343Z,18.27
2022-12-09T12:28:16.925Z,27.53
2022-12-09T12:30:49.050Z,15.83
2022-12-09T12:34:00.360Z,23.50
2022-12-09T12:36:20.890Z,13.67
2022-12-09T12:38:57.334Z,17.97
2022-12-09T12:41:30.713Z,21.37
2022-12-09T12:44:21.575Z,16.73
2022-12-09T12:46:56.439Z,19.47
2022-12-09T12:49:56.752Z,20.30
2022-12-09T12:52:54.977Z,12.10
2022-12-09T12:55:28.217Z,18.67
2022-12-09T12:57:59.526Z,23.87
2022-12-09T13:00:32.317Z,32.33
2022-12-09T13:03:09.587Z,14.10
2022-12-09T13:05:39.270Z,21.43
2022-12-09T13:08:12.502Z,16.33
2022-12-09T13:10:42.787Z,17.03
2022-12-09T13:13:12.761Z,15.33
2022-12-09T13:15:43.094Z,20.27
2022-12-09T13:18:14.897Z,17.53
2022-12-09T13:20:45.894Z,22.97
2022-12-09T13:23:19.377Z,15.13
2022-12-09T13:25:50.314Z,19.07
2022-12-09T13:28:21.077Z,16.00
2022-12-09T13:30:54.494Z,24.87
2022-12-09T13:33:44.444Z,15.40
2022-12-09T13:36:19.379Z,16.30
2022-12-09T13:38:49.298Z,15.97
2022-12-09T13:41:58.726Z,38.20
2022-12-09T13:44:29.727Z,14.20
2022-12-09T13:47:13.026Z,17.77
2022-12-09T13:49:41.550Z,15.20
2022-12-09T13:52:10.427Z,18.77
2022-12-09T13:54:48.882Z,13.03
2022-12-09T13:57:24.557Z,16.73
2022-12-09T13:59:53.897Z,11.70
2022-12-09T14:02:25.480Z,22.07
2022-12-09T14:04:59.844Z,28.00
2022-12-09T14:07:34.157Z,14.70
2022-12-09T14:10:04.255Z,24.27
2022-12-09T14:12:51.223Z,14.93
2022-12-09T14:15:34.472Z,13.10
2022-12-09T14:18:04.535Z,11.20
2022-12-09T14:20:37.869Z,22.87
2022-12-09T14:23:12.999Z,18.53
2022-12-09T14:25:56.140Z,10.37
2022-12-09T14:28:43.078Z,32.17
2022-12-09T14:31:12.776Z,23.13
2022-12-09T14:33:44.316Z,28.13
2022-12-09T14:36:23.677Z,13.47
2022-12-09T14:41:49.119Z,15.93
2022-12-09T14:44:22.809Z,10.37
2022-12-09T14:46:54.591Z,20.03
2022-12-09T14:49:24.819Z,18.37
2022-12-09T14:51:54.332Z,29.00
2022-12-09T14:54:24.758Z,14.67
2022-12-09T14:56:56.934Z,17.60
2022-12-09T14:59:26.869Z,17.40
2022-12-09T15:01:57.823Z,19.47
2022-12-09T15:04:28.761Z,20.03
2022-12-09T15:07:14.504Z,15.57
2022-12-09T15:09:50.056Z,20.27
2022-12-09T15:12:18.867Z,12.13
2022-12-09T15:14:47.823Z,15.03
2022-12-09T15:17:20.543Z,20.50
2022-12-09T15:20:05.630Z,18.40
2022-12-09T15:22:34.445Z,21.73
2022-12-09T15:25:04.436Z,25.57
2022-12-09T15:27:32.758Z,21.93
2022-12-09T15:30:01.114Z,25.13
2022-12-09T15:32:31.926Z,25.17
2022-12-09T15:35:15.084Z,19.33
2022-12-09T15:37:43.518Z,21.30
2022-12-09T15:40:13.962Z,18.90
2022-12-09T15:42:44.341Z,25.77
2022-12-09T15:45:13.536Z,38.00
2022-12-09T15:47:46.402Z,18.40
2022-12-09T15:50:18.344Z,23.10
2022-12-09T15:52:50.056Z,29.07
2022-12-09T15:55:20.015Z,20.97
2022-12-09T15:57:49.981Z,33.33
2022-12-09T16:00:18.561Z,21.23
2022-12-09T16:02:49.796Z,22.87
2022-12-09T16:05:23.019Z,26.87
2022-12-09T16:07:57.276Z,23.47
2022-12-09T16:10:27.579Z,24.70
2022-12-09T16:13:13.881Z,21.53
2022-12-09T16:15:45.965Z,17.50
2022-12-09T16:18:18.470Z,16.90
2022-12-09T16:20:57.411Z,17.37
2022-12-09T16:23:27.088Z,19.27
2022-12-09T16:26:03.133Z,15.80
2022-12-09T16:28:34.917Z,14.53
2022-12-09T16:31:04.749Z,15.83
2022-12-09T16:33:36.352Z,17.20
2022-12-09T16:36:06.499Z,13.83
2022-12-09T16:38:35.479Z,77.70
2022-12-09T16:41:07.390Z,18.07
2022-12-09T16:43:36.171Z,22.37
2022-12-09T16:46:26.062Z,30.03
2022-12-09T16:48:57.316Z,22.53
2022-12-09T16:51:28.836Z,23.33
2022-12-09T16:53:58.717Z,34.30
2022-12-09T16:56:27.869Z,31.47
2022-12-09T16:58:56.535Z,25.23
2022-12-09T17:01:26.694Z,32.27
2022-12-09T17:03:58.075Z,23.50
2022-12-09T17:06:26.401Z,27.60
2022-12-09T17:08:54.721Z,22.37
2022-12-09T17:11:23.014Z,33.23
2022-12-09T17:13:51.815Z,45.90
2022-12-09T17:16:22.051Z,20.83
2022-12-09T17:18:50.665Z,29.10
2022-12-09T17:21:20.452Z,26.73
2022-12-09T17:23:49.176Z,27.17
2022-12-09T17:26:19.255Z,27.80
2022-12-09T17:28:48.349Z,23.80
2022-12-09T17:31:17.519Z,25.83
2022-12-09T17:33:46.051Z,17.50
2022-12-09T17:36:14.792Z,40.43
2022-12-09T17:38:44.730Z,18.70
2022-12-09T17:41:15.749Z,19.63
2022-12-09T17:43:44.162Z,30.47
2022-12-09T17:46:14.585Z,30.93
2022-12-09T17:48:43.333Z,20.47
2022-12-09T17:51:14.640Z,29.50
2022-12-09T17:53:45.636Z,26.40
2022-12-09T17:56:14.814Z,21.03
2022-12-09T17:58:43.658Z,30.43
2022-12-09T18:01:15.083Z,25.97
2022-12-09T18:04:02.944Z,24.63
2022-12-09T18:06:34.496Z,28.73
2022-12-09T18:09:05.593Z,29.07
2022-12-09T18:11:34.282Z,25.80
2022-12-09T18:14:03.085Z,25.20
2022-12-09T18:16:31.651Z,14.63
2022-12-09T18:19:03.657Z,16.17
2022-12-09T18:21:32.086Z,21.70
2022-12-09T18:24:00.365Z,16.80
2022-12-09T18:26:33.003Z,22.30
2022-12-09T18:29:03.722Z,17.90
2022-12-09T18:36:53.952Z,19.53
2022-12-09T18:39:22.497Z,24.27
2022-12-09T18:41:52.157Z,20.67
2022-12-09T18:44:20.492Z,36.67
2022-12-09T18:46:49.869Z,32.03
2022-12-09T18:49:19.074Z,24.03
2022-12-09T18:51:47.868Z,25.67
2022-12-09T18:54:17.110Z,41.03
2022-12-09T18:56:45.413Z,33.33
2022-12-09T18:59:15.201Z,31.80
2022-12-09T19:01:44.382Z,36.23
2022-12-09T19:04:14.141Z,35.67
2022-12-09T19:06:43.307Z,29.10
2022-12-09T19:09:12.296Z,30.73
2022-12-09T19:11:41.384Z,42.87
2022-12-09T19:14:10.279Z,24.37
2022-12-09T19:16:40.159Z,38.43
2022-12-09T19:19:10.276Z,34.57
2022-12-09T19:21:39.187Z,27.93
2022-12-09T19:24:08.073Z,25.60
2022-12-09T19:26:39.756Z,25.23
2022-12-09T19:29:09.093Z,28.13
2022-12-09T19:31:40.241Z,26.83
2022-12-09T19:34:12.247Z,24.70
2022-12-09T19:36:40.593Z,31.40
2022-12-09T19:39:14.496Z,27.70
2022-12-09T19:41:43.223Z,22.70
2022-12-09T19:44:15.284Z,28.00
2022-12-09T19:46:46.845Z,24.70
2022-12-09T19:49:18.145Z,24.33
2022-12-09T19:51:47.045Z,31.83
2022-12-09T19:54:15.504Z,40.03
2022-12-09T19:56:44.174Z,36.20
2022-12-09T19:59:12.914Z,31.47
2022-12-09T20:01:42.932Z,28.63
2022-12-09T20:04:39.841Z,23.60
2022-12-09T20:07:08.453Z,30.17
2022-12-09T20:09:37.267Z,28.33
2022-12-09T20:12:05.966Z,41.30
2022-12-09T20:14:34.304Z,22.97
2022-12-09T20:17:02.644Z,33.57
2022-12-09T20:19:31.378Z,23.33
2022-12-09T20:21:59.843Z,41.90
2022-12-09T20:24:30.359Z,39.17
2022-12-09T20:26:58.897Z,29.53
2022-12-09T20:29:31.134Z,40.00
2022-12-09T20:32:02.404Z,41.83
2022-12-09T20:34:30.735Z,33.63
2022-12-09T20:36:59.155Z,35.00
2022-12-09T20:39:28.886Z,32.20
2022-12-09T20:41:57.197Z,30.03
2022-12-09T20:44:25.629Z,24.60
2022-12-09T20:46:54.655Z,37.13
2022-12-09T20:49:26.672Z,35.23
2022-12-09T20:51:55.686Z,38.50
2022-12-09T20:54:24.109Z,33.70
2022-12-09T20:56:54.667Z,28.93
2022-12-09T20:59:23.053Z,37.03
2022-12-09T21:01:51.382Z,32.53
2022-12-09T21:04:19.728Z,56.30
2022-12-09T21:06:48.595Z,18.73
2022-12-09T21:09:20.026Z,30.40
2022-12-09T21:11:48.674Z,38.33
2022-12-09T21:14:19.314Z,30.73
2022-12-09T21:16:50.367Z,32.17
2022-12-09T21:19:22.533Z,33.27
2022-12-09T21:21:51.265Z,35.10
2022-12-09T21:24:20.439Z,59.13
2022-12-09T21:26:48.853Z,41.63
2022-12-09T21:29:18.535Z,23.13
2022-12-09T21:31:48.210Z,33.10
2022-12-09T21:34:17.653Z,46.23
2022-12-09T21:36:46.486Z,32.47
2022-12-09T21:39:16.316Z,35.60
2022-12-09T21:41:45.089Z,28.47
2022-12-09T21:44:15.714Z,38.77
2022-12-09T21:46:45.453Z,37.13
2022-12-09T21:49:13.874Z,46.20
2022-12-09T21:51:42.613Z,45.77
2022-12-09T21:54:10.890Z,32.33
2022-12-09T21:56:39.394Z,35.10
2022-12-09T21:59:08.693Z,40.93
2022-12-09T22:01:38.101Z,52.27
2022-12-09T22:04:08.686Z,35.50
2022-12-09T22:06:37.556Z,33.13
2022-12-09T22:09:06.540Z,30.53
2022-12-09T22:11:37.065Z,40.93
2022-12-09T22:14:06.020Z,36.03
2022-12-09T22:16:35.794Z,35.13
2022-12-09T22:19:04.392Z,37.63
2022-12-09T22:21:34.704Z,43.33
2022-12-09T22:24:04.080Z,29.70
2022-12-09T22:26:32.819Z,35.87
2022-12-09T22:29:01.554Z,32.93
2022-12-09T22:31:30.964Z,26.30
2022-12-09T22:34:00.932Z,23.00
2022-12-09T22:36:29.667Z,37.83
2022-12-09T22:38:59.375Z,36.37
2022-12-09T22:41:29.800Z,30.13
2022-12-09T22:43:58.638Z,34.73
2022-12-09T22:46:28.454Z,27.83
2022-12-09T22:48:57.421Z,29.90
2022-12-09T22:51:26.988Z,24.00
2022-12-09T22:53:56.485Z,29.03
2022-12-09T22:56:26.685Z,57.87
2022-12-09T22:58:55.073Z,29.93
2022-12-09T23:01:24.515Z,33.57
2022-12-09T23:03:52.815Z,27.33
2022-12-09T23:06:21.098Z,28.97
2022-12-09T23:08:51.039Z,33.30
2022-12-09T23:11:21.621Z,28.43
2022-12-09T23:13:51.526Z,33.13
2022-12-09T23:16:20.597Z,32.03
2022-12-09T23:18:48.880Z,38.50
2022-12-09T23:21:18.343Z,33.60
2022-12-09T23:23:46.944Z,34.60
2022-12-09T23:26:16.477Z,25.53
2022-12-09T23:28:45.889Z,42.00
2022-12-09T23:31:16.584Z,34.13
2022-12-09T23:33:46.122Z,24.50
2022-12-09T23:36:16.143Z,36.93
2022-12-09T23:38:44.632Z,24.80
2022-12-09T23:41:13.217Z,35.47
2022-12-09T23:43:41.530Z,18.47
2022-12-09T23:46:15.105Z,30.33
2022-12-09T23:48:45.992Z,33.67
2022-12-09T23:51:15.278Z,24.47
2022-12-09T23:53:44.486Z,22.80
2022-12-09T23:56:13.522Z,34.13
2022-12-09T23:58:42.191Z,35.53
